Time;durP1;ratioP1;P1;durP2;ratioP2;P2;SDS_P1;SDS_P2;PMS_P1;PMS_P2;Temp;Humidity;BMP_temperature;BMP_pressure;BME280_temperature;BME280_humidity;BME280_pressure;Samples;Min_cycle;Max_cycle;Signal;HPM_P1;HPM_P2
2023/01/26 00:02:25;;;;;;;5.28;2.88;;;-0.70;99.90;;;;;;5063112;28;20215;-79
2023/01/26 00:04:52;;;;;;;3.85;3.55;;;-0.80;99.90;;;;;;5062138;28;20229;-77
2023/01/26 00:07:19;;;;;;;5.75;1.92;;;-0.80;99.90;;;;;;5062807;28;20230;-78
2023/01/26 00:09:46;;;;;;;0.70;0.70;;;-0.80;99.90;;;;;;5062945;28;20260;-78
2023/01/26 00:12:17;;;;;;;2.67;2.47;;;-0.90;99.90;;;;;;5062839;28;20284;-77
2023/01/26 00:14:50;;;;;;;9.18;4.68;;;-0.90;99.90;;;;;;5061566;28;20211;-79
2023/01/26 00:17:24;;;;;;;8.95;8.38;;;-0.90;99.90;;;;;;5061701;28;20287;-78
2023/01/26 00:19:53;;;;;;;0.50;0.50;;;-0.90;99.90;;;;;;5062008;28;20210;-77
2023/01/26 00:22:20;;;;;;;5.65;5.35;;;-1.00;99.90;;;;;;5062043;28;20201;-78
2023/01/26 00:24:47;;;;;;;3.08;2.25;;;-1.00;99.90;;;;;;5062437;28;20226;-78
2023/01/26 00:27:16;;;;;;;19.15;12.95;;;-1.00;99.90;;;;;;5062524;28;20221;-78
2023/01/26 00:29:44;;;;;;;4.68;4.22;;;-1.00;99.90;;;;;;5061611;28;20195;-78
2023/01/26 00:32:11;;;;;;;30.02;11.65;;;-1.20;99.90;;;;;;5062343;28;20246;-78
2023/01/26 00:34:38;;;;;;;12.05;7.93;;;-1.10;99.90;;;;;;5061752;28;20242;-78
2023/01/26 00:37:05;;;;;;;22.08;5.00;;;-1.10;99.90;;;;;;5062955;28;20246;-77
2023/01/26 00:39:32;;;;;;;5.57;4.82;;;-1.10;99.90;;;;;;5062870;28;20259;-78
2023/01/26 00:42:08;;;;;;;19.30;11.15;;;-1.10;99.90;;;;;;5062327;28;20218;-79
2023/01/26 00:44:38;;;;;;;3.53;3.28;;;-1.10;99.90;;;;;;5062153;28;20263;-78
2023/01/26 00:47:05;;;;;;;0.88;0.88;;;-1.10;99.90;;;;;;5063095;28;20189;-76
2023/01/26 00:49:33;;;;;;;37.70;8.27;;;-1.10;99.90;;;;;;5063339;28;20199;-76
2023/01/26 00:52:00;;;;;;;7.78;5.43;;;-1.00;99.90;;;;;;5062843;28;20200;-77
2023/01/26 00:54:28;;;;;;;0.70;0.70;;;-1.00;99.90;;;;;;5061821;28;20208;-78
2023/01/26 00:56:54;;;;;;;1.20;1.20;;;-1.00;99.90;;;;;;5063067;28;20309;-79
2023/01/26 00:59:22;;;;;;;5.78;5.30;;;-1.00;99.90;;;;;;5062708;28;20260;-79
2023/01/26 01:01:50;;;;;;;22.98;10.60;;;-0.90;99.90;;;;;;5061911;28;20202;-76
2023/01/26 01:04:17;;;;;;;4.20;3.88;;;-0.90;99.90;;;;;;5062170;28;20206;-77
2023/01/26 01:06:45;;;;;;;4.20;1.98;;;-1.00;99.90;;;;;;5061713;28;20218;-79
2023/01/26 01:09:12;;;;;;;10.27;9.32;;;-1.00;99.90;;;;;;5062590;28;20201;-78
2023/01/26 01:11:39;;;;;;;7.38;6.78;;;-0.90;99.90;;;;;;5062263;28;20205;-78
2023/01/26 01:14:06;;;;;;;7.78;7.00;;;-0.90;99.90;;;;;;5062420;28;20200;-78
2023/01/26 01:16:33;;;;;;;9.43;4.93;;;-0.90;99.90;;;;;;5061946;28;20226;-76
2023/01/26 01:19:01;;;;;;;1.00;1.00;;;-1.00;99.90;;;;;;5057000;28;20201;-79
2023/01/26 01:21:28;;;;;;;7.88;4.20;;;-1.00;99.90;;;;;;5055829;28;20202;-80
2023/01/26 01:23:55;;;;;;;13.88;1.80;;;-0.90;99.90;;;;;;5056266;28;20214;-78
2023/01/26 01:26:21;;;;;;;8.57;4.47;;;-0.90;99.90;;;;;;5055356;28;20306;-78
2023/01/26 01:28:49;;;;;;;10.13;4.78;;;-0.90;99.90;;;;;;5056588;28;20620;-79
2023/01/26 01:31:16;;;;;;;6.13;5.57;;;-0.90;99.90;;;;;;5057007;28;20223;-79
2023/01/26 01:33:44;;;;;;;2.55;2.35;;;-0.80;99.90;;;;;;5057785;28;20297;-79
2023/01/26 01:36:13;;;;;;;5.57;5.20;;;-0.80;99.90;;;;;;5056808;28;20642;-79
2023/01/26 01:38:41;;;;;;;0.50;0.40;;;-0.80;99.90;;;;;;5056951;28;20212;-77
2023/01/26 01:41:08;;;;;;;3.58;2.78;;;-0.80;99.90;;;;;;5059608;28;20725;-78
2023/01/26 01:43:35;;;;;;;7.32;6.88;;;-0.70;99.90;;;;;;5061536;28;20196;-78
2023/01/26 01:46:05;;;;;;;9.95;5.80;;;-0.70;99.90;;;;;;5061693;28;20301;-79
2023/01/26 01:48:38;;;;;;;7.90;2.25;;;-0.70;99.90;;;;;;5063060;28;20186;-78
2023/01/26 01:51:11;;;;;;;20.45;6.68;;;-0.70;99.90;;;;;;5063148;28;20183;-78
2023/01/26 01:53:43;;;;;;;1.52;1.52;;;-0.70;99.90;;;;;;5063068;28;20254;-77
2023/01/26 01:56:13;;;;;;;13.90;8.07;;;-0.80;99.90;;;;;;5063740;28;20283;-78
2023/01/26 01:58:43;;;;;;;8.35;3.13;;;-0.80;99.90;;;;;;5065162;28;20271;-75
2023/01/26 02:01:10;;;;;;;10.63;4.00;;;-0.80;99.90;;;;;;5062978;28;20291;-78
2023/01/26 02:03:38;;;;;;;13.00;4.72;;;-0.80;99.90;;;;;;5062803;28;20364;-79
2023/01/26 02:06:10;;;;;;;17.17;6.78;;;-0.90;99.90;;;;;;5062159;28;20229;-78
2023/01/26 02:08:43;;;;;;;2.55;2.45;;;-0.90;99.90;;;;;;5062719;28;20210;-79
2023/01/26 02:11:14;;;;;;;1.90;1.80;;;-0.90;99.90;;;;;;5062941;28;20197;-78
2023/01/26 02:13:42;;;;;;;1.65;1.55;;;-0.90;99.90;;;;;;5062506;28;20189;-79
2023/01/26 02:16:10;;;;;;;31.65;13.75;;;-0.90;99.90;;;;;;5061487;28;20221;-77
2023/01/26 02:18:37;;;;;;;7.70;6.20;;;-0.90;99.90;;;;;;5062038;28;20308;-78
2023/01/26 02:21:06;;;;;;;20.33;8.45;;;-0.90;99.90;;;;;;5061790;28;20233;-78
2023/01/26 02:23:48;;;;;;;7.82;7.18;;;-0.90;99.90;;;;;;5061630;28;20197;-78
2023/01/26 02:26:19;;;;;;;13.63;6.60;;;-0.90;99.90;;;;;;5060807;28;20574;-78
2023/01/26 02:28:47;;;;;;;16.80;10.38;;;-1.00;99.90;;;;;;5060261;28;20282;-79
2023/01/26 02:31:17;;;;;;;10.93;3.85;;;-1.00;99.90;;;;;;5059884;28;20277;-79
2023/01/26 02:33:44;;;;;;;4.93;4.43;;;-1.00;99.90;;;;;;5056198;28;20193;-79
2023/01/26 02:36:18;;;;;;;22.58;13.27;;;-0.90;99.90;;;;;;5055100;28;20218;-78
2023/01/26 02:38:53;;;;;;;1.50;1.50;;;-0.90;99.90;;;;;;5054982;28;20263;-79
2023/01/26 02:44:04;;;;;;;13.05;10.25;;;-0.90;99.90;;;;;;5053865;28;20187;-79
2023/01/26 02:46:31;;;;;;;16.52;3.55;;;-0.90;99.90;;;;;;5054810;28;20219;-79
2023/01/26 02:51:42;;;;;;;2.78;2.45;;;-0.90;99.90;;;;;;5054618;28;20189;-79
2023/01/26 02:54:08;;;;;;;2.35;2.25;;;-0.80;99.90;;;;;;5054527;28;20200;-78
2023/01/26 02:56:56;;;;;;;2.25;2.15;;;-0.80;99.90;;;;;;5054374;28;20587;-79
2023/01/26 02:59:23;;;;;;;0.57;0.57;;;-0.80;99.90;;;;;;5054629;28;20216;-79
2023/01/26 03:01:50;;;;;;;2.20;1.52;;;-0.80;99.90;;;;;;5054299;28;20199;-79
2023/01/26 03:04:17;;;;;;;0.93;0.93;;;-0.70;99.90;;;;;;5054969;28;20196;-77
2023/01/26 03:06:44;;;;;;;2.88;2.67;;;-0.70;99.90;;;;;;5054354;28;20210;-79
2023/01/26 03:09:11;;;;;;;19.92;12.55;;;-0.80;99.90;;;;;;5054076;28;20677;-78
2023/01/26 03:11:41;;;;;;;18.02;6.43;;;-0.80;99.90;;;;;;5054991;28;20198;-79
2023/01/26 03:14:10;;;;;;;2.92;2.30;;;-0.80;99.90;;;;;;5053911;28;20220;-79
2023/01/26 03:16:36;;;;;;;13.18;5.53;;;-0.80;99.90;;;;;;5053750;28;20230;-76
2023/01/26 03:27:28;;;;;;;0.50;0.40;;;-0.70;99.90;;;;;;5053843;28;20533;-79
2023/01/26 03:29:57;;;;;;;0.60;0.60;;;-0.70;99.90;;;;;;5054449;28;20556;-79
2023/01/26 03:32:24;;;;;;;3.78;3.42;;;-0.70;99.90;;;;;;5053840;28;20201;-79
2023/01/26 03:34:51;;;;;;;2.95;2.65;;;-0.60;99.90;;;;;;5053565;28;20194;-78
2023/01/26 03:37:21;;;;;;;3.70;2.90;;;-0.60;99.90;;;;;;5053854;28;20563;-79
2023/01/26 03:56:21;;;;;;;1.92;1.83;;;-0.50;99.90;;;;;;5052082;28;20212;-76
2023/01/26 03:58:51;;;;;;;2.55;2.45;;;-0.50;99.90;;;;;;5052287;28;20248;-78
2023/01/26 04:01:20;;;;;;;3.03;2.80;;;-0.40;99.90;;;;;;5052499;28;20195;-78
2023/01/26 04:09:23;;;;;;;1.27;1.25;;;-0.40;99.90;;;;;;5056559;28;20204;-77
2023/01/26 04:11:50;;;;;;;2.60;2.40;;;-0.40;99.90;;;;;;5056174;28;20204;-78
2023/01/26 04:22:39;;;;;;;2.83;2.30;;;-0.40;99.90;;;;;;5056419;28;20664;-79
2023/01/26 04:25:07;;;;;;;8.57;1.52;;;-0.30;99.90;;;;;;5058111;28;20218;-77
2023/01/26 04:27:34;;;;;;;4.10;3.88;;;-0.30;99.90;;;;;;5059502;28;20197;-78
2023/01/26 04:30:03;;;;;;;2.95;2.70;;;-0.30;99.90;;;;;;5058690;28;20293;-79
2023/01/26 04:32:32;;;;;;;5.78;5.32;;;-0.30;99.90;;;;;;5058983;28;20686;-77
2023/01/26 04:35:00;;;;;;;2.78;2.15;;;-0.40;99.90;;;;;;5059085;28;20223;-79
2023/01/26 04:37:27;;;;;;;1.77;1.67;;;-0.40;99.90;;;;;;5059147;28;20270;-79
2023/01/26 04:39:54;;;;;;;4.00;3.70;;;-0.40;99.90;;;;;;5058532;28;20202;-77
2023/01/26 04:42:23;;;;;;;2.97;2.78;;;-0.40;99.90;;;;;;5058789;28;20237;-78
2023/01/26 04:44:50;;;;;;;2.75;2.53;;;-0.40;99.90;;;;;;5058152;28;20213;-78
2023/01/26 04:47:18;;;;;;;7.80;3.03;;;-0.40;99.90;;;;;;5058711;28;20288;-77
2023/01/26 04:49:46;;;;;;;1.60;1.50;;;-0.40;99.90;;;;;;5058355;28;20564;-79
2023/01/26 04:52:13;;;;;;;0.50;0.40;;;-0.40;99.90;;;;;;5057508;28;20619;-78
2023/01/26 04:54:40;;;;;;;0.77;0.77;;;-0.30;99.90;;;;;;5056669;28;20225;-80
2023/01/26 04:57:08;;;;;;;2.53;2.35;;;-0.30;99.90;;;;;;5057880;28;20254;-77
2023/01/26 04:59:35;;;;;;;4.10;2.35;;;-0.20;99.90;;;;;;5057859;28;20253;-80
2023/01/26 05:02:02;;;;;;;0.50;0.40;;;-0.20;99.90;;;;;;5057744;28;20244;-78
2023/01/26 05:04:29;;;;;;;0.50;0.40;;;-0.20;99.90;;;;;;5057504;28;20224;-78
2023/01/26 05:06:57;;;;;;;2.55;2.38;;;-0.20;99.90;;;;;;5040558;28;20214;-78
2023/01/26 05:09:24;;;;;;;2.15;2.05;;;-0.20;99.90;;;;;;5057165;28;20703;-78
2023/01/26 05:11:50;;;;;;;4.20;3.90;;;-0.10;99.90;;;;;;5056203;28;20201;-79
2023/01/26 05:14:17;;;;;;;3.20;2.90;;;-0.10;99.90;;;;;;5056956;28;20256;-78
2023/01/26 05:16:44;;;;;;;2.83;2.72;;;-0.10;99.90;;;;;;5059584;28;21007;-77
2023/01/26 05:19:11;;;;;;;0.70;0.70;;;-0.10;99.90;;;;;;5060281;28;20649;-78
2023/01/26 05:21:38;;;;;;;2.45;2.25;;;-0.10;99.90;;;;;;5060675;28;20204;-78
2023/01/26 05:24:08;;;;;;;0.47;0.40;;;-0.10;99.90;;;;;;5060300;28;20618;-78
2023/01/26 05:26:36;;;;;;;1.67;1.50;;;-0.10;99.90;;;;;;5049797;28;20684;-78
2023/01/26 05:29:03;;;;;;;0.85;0.85;;;-0.10;99.90;;;;;;5070077;28;20224;-79
2023/01/26 05:31:30;;;;;;;4.90;3.72;;;-0.10;99.90;;;;;;5078258;28;20301;-78
2023/01/26 05:33:56;;;;;;;1.80;1.70;;;0.00;99.90;;;;;;5082244;28;20190;-78
2023/01/26 05:36:23;;;;;;;5.55;4.28;;;-0.10;99.90;;;;;;5080716;28;20216;-79
2023/01/26 05:38:50;;;;;;;3.88;3.55;;;0.00;99.90;;;;;;5080038;28;20216;-79
2023/01/26 05:41:18;;;;;;;4.45;1.73;;;-0.10;99.90;;;;;;5080789;28;20199;-78
2023/01/26 05:43:45;;;;;;;4.53;3.13;;;-0.10;99.90;;;;;;5080412;28;20283;-79
2023/01/26 05:46:12;;;;;;;3.08;2.88;;;-0.10;99.90;;;;;;5080554;28;20252;-79
2023/01/26 05:48:39;;;;;;;1.65;1.55;;;0.00;99.90;;;;;;5081133;28;20237;-80
2023/01/26 05:51:06;;;;;;;4.82;0.95;;;0.00;99.90;;;;;;5080622;28;20283;-79
2023/01/26 05:53:32;;;;;;;1.45;1.35;;;0.00;99.90;;;;;;5080646;28;20193;-78
2023/01/26 05:55:59;;;;;;;7.22;6.38;;;0.00;99.90;;;;;;5080260;28;20287;-79
2023/01/26 05:58:27;;;;;;;2.65;2.45;;;0.00;99.90;;;;;;5080768;28;20213;-79
2023/01/26 06:00:54;;;;;;;0.50;0.40;;;0.00;99.90;;;;;;5079901;28;20207;-79
2023/01/26 06:03:23;;;;;;;1.42;1.40;;;0.00;99.90;;;;;;5079875;28;20225;-78
2023/01/26 06:05:54;;;;;;;0.50;0.40;;;-0.10;99.90;;;;;;5079235;28;20305;-80
2023/01/26 06:08:20;;;;;;;0.50;0.40;;;-0.10;99.90;;;;;;5079620;28;20201;-79
2023/01/26 06:10:47;;;;;;;13.65;10.73;;;0.00;99.90;;;;;;5079380;28;20198;-79
2023/01/26 06:13:14;;;;;;;1.25;1.17;;;0.10;99.90;;;;;;5078152;28;20235;-78
2023/01/26 06:15:42;;;;;;;0.50;0.50;;;0.10;99.90;;;;;;5079570;28;20221;-78
2023/01/26 06:18:09;;;;;;;12.30;7.95;;;0.10;99.90;;;;;;5082934;28;20717;-80
2023/01/26 06:20:36;;;;;;;2.58;2.08;;;0.10;99.90;;;;;;5097507;28;20190;-79
2023/01/26 06:23:04;;;;;;;1.02;1.02;;;0.10;99.90;;;;;;5098402;28;20181;-79
2023/01/26 06:25:31;;;;;;;0.50;0.40;;;0.10;99.90;;;;;;5096583;28;20244;-80
2023/01/26 06:28:00;;;;;;;3.47;1.98;;;0.10;99.90;;;;;;5087902;28;20296;-79
2023/01/26 06:30:27;;;;;;;0.60;0.47;;;0.10;99.90;;;;;;5077364;28;20280;-79
2023/01/26 06:32:55;;;;;;;1.88;1.85;;;0.00;99.90;;;;;;5079049;28;20309;-78
2023/01/26 06:35:22;;;;;;;0.50;0.40;;;0.10;99.90;;;;;;5080068;28;20248;-79
2023/01/26 06:37:50;;;;;;;5.78;2.10;;;0.10;99.90;;;;;;5080059;28;20575;-78
2023/01/26 06:40:17;;;;;;;1.95;1.58;;;0.20;99.90;;;;;;5083929;28;20222;-78
2023/01/26 06:42:48;;;;;;;2.45;2.35;;;0.20;99.90;;;;;;5079229;28;20204;-78
2023/01/26 06:45:19;;;;;;;2.05;1.95;;;0.20;99.90;;;;;;5078834;28;20218;-79
2023/01/26 06:47:46;;;;;;;3.75;3.45;;;0.20;99.90;;;;;;5078552;28;20178;-79
2023/01/26 06:50:18;;;;;;;0.40;0.40;;;0.10;99.90;;;;;;5084097;28;20204;-78
2023/01/26 06:52:46;;;;;;;0.50;0.40;;;0.20;99.90;;;;;;5082640;28;20236;-78
2023/01/26 06:55:18;;;;;;;5.35;5.05;;;0.10;99.90;;;;;;5081798;28;20249;-78
2023/01/26 06:57:45;;;;;;;0.65;0.65;;;0.20;99.90;;;;;;5083027;28;20261;-78
2023/01/26 07:00:13;;;;;;;2.63;2.25;;;0.20;99.90;;;;;;5082086;28;20725;-79
2023/01/26 07:02:43;;;;;;;4.00;3.70;;;0.20;99.90;;;;;;5077908;28;20236;-79
2023/01/26 07:05:10;;;;;;;11.18;6.13;;;0.20;99.90;;;;;;5078128;28;20587;-80
2023/01/26 07:07:38;;;;;;;0.80;0.77;;;0.20;99.90;;;;;;5079141;28;20194;-79
2023/01/26 07:10:06;;;;;;;0.50;0.40;;;0.20;99.90;;;;;;5078500;28;20279;-77
2023/01/26 07:12:40;;;;;;;0.50;0.40;;;0.20;99.90;;;;;;5079509;28;20228;-79
2023/01/26 07:15:08;;;;;;;1.65;1.58;;;0.10;99.90;;;;;;5080114;28;20658;-80
2023/01/26 07:17:34;;;;;;;1.05;1.05;;;0.10;99.90;;;;;;5079079;28;20277;-80
2023/01/26 07:20:01;;;;;;;1.20;1.20;;;0.10;99.90;;;;;;5086469;28;20216;-81
2023/01/26 07:22:29;;;;;;;0.57;0.57;;;0.20;99.90;;;;;;5081123;28;20225;-80
2023/01/26 07:24:57;;;;;;;0.50;0.40;;;0.20;99.90;;;;;;5084193;28;20239;-80
2023/01/26 07:27:25;;;;;;;1.67;1.58;;;0.20;99.90;;;;;;5084787;28;20235;-82
2023/01/26 07:29:52;;;;;;;11.35;6.38;;;0.20;99.90;;;;;;5083978;28;20190;-81
2023/01/26 07:32:19;;;;;;;2.25;2.15;;;0.30;99.90;;;;;;5084636;28;20205;-79
2023/01/26 07:34:47;;;;;;;0.95;0.95;;;0.30;99.90;;;;;;5084559;28;20201;-80
2023/01/26 07:37:14;;;;;;;0.57;0.55;;;0.20;99.90;;;;;;5085143;28;20247;-79
2023/01/26 07:39:41;;;;;;;0.50;0.40;;;0.20;99.90;;;;;;5084375;28;20239;-82
2023/01/26 07:42:09;;;;;;;1.40;1.05;;;0.30;99.90;;;;;;5095132;28;20201;-83
2023/01/26 07:44:36;;;;;;;0.57;0.55;;;0.30;99.90;;;;;;5094284;28;20218;-78
2023/01/26 07:47:03;;;;;;;0.40;0.40;;;0.30;99.90;;;;;;5095073;28;20237;-79
2023/01/26 07:49:30;;;;;;;2.20;2.15;;;0.30;99.90;;;;;;5095584;28;20216;-82
2023/01/26 07:51:57;;;;;;;0.50;0.40;;;0.30;99.90;;;;;;5095633;28;20187;-82
2023/01/26 07:54:24;;;;;;;2.88;2.78;;;0.30;99.90;;;;;;5095651;28;20256;-83
2023/01/26 07:56:53;;;;;;;0.40;0.40;;;0.40;99.90;;;;;;5082404;28;20244;-82
2023/01/26 07:59:21;;;;;;;0.50;0.40;;;0.40;99.90;;;;;;5083379;28;20216;-81
2023/01/26 08:01:49;;;;;;;1.15;1.15;;;0.40;99.90;;;;;;5077461;28;20220;-78
2023/01/26 08:04:16;;;;;;;0.73;0.73;;;0.40;99.90;;;;;;5076595;28;20217;-81
2023/01/26 08:06:43;;;;;;;0.50;0.40;;;0.50;99.90;;;;;;5077862;28;20245;-80
2023/01/26 08:09:10;;;;;;;3.60;0.85;;;0.50;99.90;;;;;;5079880;28;20287;-80
2023/01/26 08:11:37;;;;;;;2.15;2.05;;;0.50;99.90;;;;;;5078697;28;20198;-81
2023/01/26 08:14:04;;;;;;;6.65;4.00;;;0.50;99.90;;;;;;5078155;28;20233;-79
2023/01/26 08:16:32;;;;;;;0.50;0.40;;;0.50;99.90;;;;;;5076386;28;20229;-80
2023/01/26 08:18:59;;;;;;;2.55;1.40;;;0.50;99.90;;;;;;5077151;28;20643;-80
2023/01/26 08:21:26;;;;;;;4.50;2.15;;;0.50;99.90;;;;;;5078193;28;20285;-81
2023/01/26 08:23:54;;;;;;;2.45;2.35;;;0.50;99.90;;;;;;5077328;28;20201;-81
2023/01/26 08:26:21;;;;;;;0.50;0.50;;;0.50;99.90;;;;;;5076912;28;20603;-81
2023/01/26 08:28:48;;;;;;;0.77;0.77;;;0.50;99.90;;;;;;5076326;28;20277;-81
2023/01/26 08:31:18;;;;;;;0.75;0.75;;;0.50;99.90;;;;;;5074865;28;20289;-81
2023/01/26 08:33:49;;;;;;;3.22;2.85;;;0.50;99.90;;;;;;5075325;28;20198;-80
2023/01/26 08:36:17;;;;;;;1.30;1.25;;;0.50;99.90;;;;;;5074414;28;20240;-80
2023/01/26 08:38:44;;;;;;;0.50;0.40;;;0.60;99.90;;;;;;5075438;28;20765;-79
2023/01/26 08:41:12;;;;;;;2.15;2.05;;;0.60;99.90;;;;;;5075090;28;20616;-81
2023/01/26 08:43:39;;;;;;;11.60;7.85;;;0.60;99.90;;;;;;5078376;28;20204;-82
2023/01/26 08:46:06;;;;;;;2.17;2.08;;;0.60;99.90;;;;;;5080650;28;20222;-81
2023/01/26 08:48:33;;;;;;;2.35;1.80;;;0.60;99.90;;;;;;5082052;28;20194;-79
2023/01/26 08:51:05;;;;;;;1.55;1.40;;;0.60;99.90;;;;;;5084853;28;20253;-80
2023/01/26 08:53:33;;;;;;;3.03;2.92;;;0.70;99.90;;;;;;5086225;28;20178;-78
2023/01/26 08:56:01;;;;;;;5.15;4.72;;;0.70;99.90;;;;;;5084285;28;20217;-78
2023/01/26 08:58:29;;;;;;;5.80;5.55;;;0.70;99.90;;;;;;5088019;28;20194;-79
2023/01/26 09:00:55;;;;;;;0.50;0.40;;;0.70;99.90;;;;;;5087579;28;20214;-79
2023/01/26 09:03:22;;;;;;;2.10;1.95;;;0.70;99.90;;;;;;5084116;28;20233;-81
2023/01/26 09:05:49;;;;;;;0.50;0.40;;;0.70;99.90;;;;;;5084998;28;20290;-77
2023/01/26 09:08:18;;;;;;;2.85;2.60;;;0.80;99.90;;;;;;5083595;28;20198;-78
2023/01/26 09:10:44;;;;;;;1.42;1.33;;;0.80;99.90;;;;;;5083420;28;20217;-81
2023/01/26 09:13:12;;;;;;;0.50;0.50;;;0.80;99.90;;;;;;5083132;28;20281;-80
2023/01/26 09:15:39;;;;;;;4.30;3.40;;;0.80;99.90;;;;;;5084492;28;20217;-76
2023/01/26 09:18:06;;;;;;;0.50;0.40;;;0.80;99.90;;;;;;5085375;28;20220;-79
2023/01/26 09:20:33;;;;;;;1.70;1.60;;;0.80;99.90;;;;;;5085992;28;20210;-79
2023/01/26 09:23:07;;;;;;;0.85;0.80;;;0.80;99.90;;;;;;5085796;28;20246;-80
2023/01/26 09:25:38;;;;;;;2.30;2.25;;;0.90;99.90;;;;;;5085444;28;20224;-81
2023/01/26 09:28:06;;;;;;;0.50;0.40;;;0.90;99.90;;;;;;5083196;28;20244;-80
2023/01/26 09:30:33;;;;;;;2.25;2.05;;;1.00;99.90;;;;;;5085076;28;20201;-80
2023/01/26 09:33:00;;;;;;;0.40;0.40;;;1.00;99.90;;;;;;5083535;28;20641;-79
2023/01/26 09:35:33;;;;;;;1.40;1.35;;;1.00;99.90;;;;;;5083172;28;20702;-78
2023/01/26 09:38:01;;;;;;;0.50;0.40;;;1.00;99.90;;;;;;5086304;28;20567;-79
2023/01/26 09:40:41;;;;;;;0.50;0.50;;;1.00;99.90;;;;;;5084271;28;20210;-80
2023/01/26 09:43:24;;;;;;;2.65;2.45;;;1.00;99.90;;;;;;5087335;28;20198;-78
2023/01/26 09:46:00;;;;;;;0.50;0.40;;;1.00;99.90;;;;;;5099919;28;20214;-80
2023/01/26 09:48:39;;;;;;;1.38;1.38;;;1.10;99.90;;;;;;5099249;28;20193;-78
2023/01/26 09:51:12;;;;;;;3.78;3.58;;;1.10;99.90;;;;;;5098926;28;20174;-78
2023/01/26 09:53:50;;;;;;;1.90;1.80;;;1.10;99.90;;;;;;5098874;28;20167;-80
2023/01/26 09:56:22;;;;;;;4.05;3.65;;;1.20;99.90;;;;;;5096931;28;20198;-79
2023/01/26 09:58:55;;;;;;;1.35;1.25;;;1.20;99.90;;;;;;5096778;28;20254;-79
2023/01/26 10:01:31;;;;;;;1.63;1.02;;;1.20;99.90;;;;;;5096372;28;20730;-80
2023/01/26 10:04:05;;;;;;;0.50;0.45;;;1.20;99.90;;;;;;5081999;28;20204;-80
2023/01/26 10:06:33;;;;;;;0.50;0.40;;;1.30;99.90;;;;;;5079285;28;20241;-81
2023/01/26 10:09:02;;;;;;;0.55;0.55;;;1.30;99.90;;;;;;5079161;28;20724;-80
2023/01/26 10:11:37;;;;;;;2.38;2.28;;;1.30;99.90;;;;;;5078895;28;20233;-81
2023/01/26 10:14:13;;;;;;;4.40;4.20;;;1.30;99.90;;;;;;5079295;28;20184;-80
2023/01/26 10:16:42;;;;;;;1.67;1.23;;;1.30;99.90;;;;;;5080262;28;20245;-79
2023/01/26 10:19:16;;;;;;;2.63;1.83;;;1.30;99.90;;;;;;5080353;28;20217;-81
2023/01/26 10:21:47;;;;;;;0.98;0.98;;;1.40;99.90;;;;;;5080138;28;20178;-80
2023/01/26 10:24:17;;;;;;;3.88;3.22;;;1.50;99.90;;;;;;5079983;28;20269;-81
2023/01/26 10:26:46;;;;;;;0.50;0.50;;;1.50;99.90;;;;;;5079932;28;20256;-79
2023/01/26 10:29:15;;;;;;;0.50;0.40;;;1.50;99.90;;;;;;5080001;28;20566;-80
2023/01/26 10:31:42;;;;;;;4.75;2.05;;;1.50;99.90;;;;;;5079384;28;20686;-81
2023/01/26 10:34:13;;;;;;;0.50;0.50;;;1.60;99.90;;;;;;5079148;28;20198;-80
2023/01/26 10:36:41;;;;;;;3.35;3.03;;;1.60;99.90;;;;;;5078018;28;20213;-79
2023/01/26 10:39:12;;;;;;;2.85;2.38;;;1.70;99.90;;;;;;5078991;28;20204;-80
2023/01/26 10:41:39;;;;;;;4.65;4.25;;;1.60;99.90;;;;;;5083406;28;20210;-81
2023/01/26 10:44:24;;;;;;;0.45;0.40;;;1.60;99.90;;;;;;5086543;28;20198;-80
2023/01/26 10:47:04;;;;;;;2.45;2.15;;;1.60;99.90;;;;;;5090947;28;20703;-80
2023/01/26 10:49:31;;;;;;;0.50;0.40;;;1.70;99.90;;;;;;5082474;28;20193;-80
2023/01/26 10:52:16;;;;;;;3.10;1.88;;;1.80;99.90;;;;;;5083810;28;20225;-79
2023/01/26 10:54:43;;;;;;;0.50;0.47;;;2.00;99.90;;;;;;5077582;28;20624;-79
2023/01/26 10:57:22;;;;;;;0.70;0.70;;;2.10;99.90;;;;;;5078915;28;20204;-80
2023/01/26 10:59:54;;;;;;;1.25;1.15;;;2.10;99.90;;;;;;5080359;28;20202;-79
2023/01/26 11:02:26;;;;;;;1.60;1.50;;;2.10;99.90;;;;;;5079378;28;20220;-79
2023/01/26 11:05:04;;;;;;;5.38;2.58;;;2.10;99.90;;;;;;5079040;28;20662;-81
2023/01/26 11:07:34;;;;;;;0.90;0.90;;;2.10;99.90;;;;;;5080104;28;20212;-80
2023/01/26 11:10:23;;;;;;;0.80;0.80;;;2.00;99.90;;;;;;5080289;28;20194;-80
2023/01/26 11:12:52;;;;;;;4.40;1.88;;;2.00;99.90;;;;;;5080529;28;20592;-77
2023/01/26 11:15:22;;;;;;;1.55;1.52;;;2.00;99.90;;;;;;5081038;28;20257;-80
2023/01/26 11:17:56;;;;;;;0.50;0.40;;;2.00;99.90;;;;;;5079706;28;20180;-79
2023/01/26 11:20:50;;;;;;;0.50;0.40;;;2.00;99.90;;;;;;5079700;28;20208;-78
2023/01/26 11:23:34;;;;;;;3.58;1.75;;;2.00;99.90;;;;;;5063038;28;20719;-80
2023/01/26 11:26:16;;;;;;;0.50;0.40;;;2.10;99.90;;;;;;5083473;28;20316;-80
2023/01/26 11:28:54;;;;;;;2.13;2.00;;;2.00;99.90;;;;;;5081811;28;20178;-77
2023/01/26 11:31:37;;;;;;;2.80;2.65;;;2.00;99.90;;;;;;5081175;28;20182;-80
2023/01/26 11:34:16;;;;;;;0.50;0.40;;;2.00;99.90;;;;;;5097086;22;20713;-76
2023/01/26 11:36:52;;;;;;;1.70;1.60;;;1.90;99.90;;;;;;5079038;28;20189;-77
2023/01/26 11:39:26;;;;;;;3.72;3.53;;;1.90;99.90;;;;;;5083817;28;20687;-77
2023/01/26 11:42:07;;;;;;;7.53;4.95;;;1.90;99.90;;;;;;5093019;28;20289;-77
2023/01/26 11:45:00;;;;;;;0.70;0.70;;;1.80;99.90;;;;;;5042073;28;20215;-77
2023/01/26 11:47:44;;;;;;;2.03;1.88;;;1.80;99.90;;;;;;5032087;28;20622;-77
2023/01/26 11:50:28;;;;;;;0.85;0.85;;;1.80;99.90;;;;;;5031471;28;20191;-77
2023/01/26 11:53:18;;;;;;;8.98;4.00;;;1.80;99.90;;;;;;5031910;28;20215;-76
2023/01/26 11:56:06;;;;;;;1.15;1.02;;;1.90;99.90;;;;;;5031468;28;20219;-77
2023/01/26 11:58:39;;;;;;;0.50;0.40;;;1.80;99.90;;;;;;5032132;28;20630;-76
2023/01/26 12:01:09;;;;;;;0.70;0.70;;;1.90;99.90;;;;;;5031658;28;20238;-76
2023/01/26 12:03:43;;;;;;;0.50;0.40;;;2.00;99.90;;;;;;5031808;28;20747;-77
2023/01/26 12:06:17;;;;;;;48.70;3.85;;;2.00;99.90;;;;;;5032294;28;20204;-77
2023/01/26 12:08:50;;;;;;;0.50;0.40;;;2.10;99.90;;;;;;5032205;28;20282;-76
2023/01/26 12:11:24;;;;;;;1.52;1.52;;;2.10;99.90;;;;;;5032558;28;20194;-77
2023/01/26 12:14:00;;;;;;;0.60;0.60;;;2.10;99.90;;;;;;5031922;28;20222;-76
2023/01/26 12:16:37;;;;;;;3.42;1.80;;;2.10;99.90;;;;;;5032420;28;20205;-75
2023/01/26 12:19:13;;;;;;;8.10;2.22;;;2.00;99.90;;;;;;5034409;28;20290;-77
2023/01/26 12:21:44;;;;;;;0.50;0.40;;;2.10;99.90;;;;;;5034966;28;20225;-77
2023/01/26 12:24:19;;;;;;;1.60;1.50;;;2.10;99.90;;;;;;5033704;28;20225;-77
2023/01/26 12:26:50;;;;;;;5.20;2.25;;;2.10;99.90;;;;;;5033332;28;20189;-77
2023/01/26 12:29:23;;;;;;;0.52;0.52;;;2.10;99.90;;;;;;5032885;28;20294;-77
2023/01/26 12:31:57;;;;;;;0.50;0.40;;;2.10;99.90;;;;;;5031976;28;20206;-77
2023/01/26 12:34:28;;;;;;;1.58;1.48;;;2.10;99.90;;;;;;5031414;28;20727;-76
2023/01/26 12:37:13;;;;;;;0.50;0.50;;;2.20;99.90;;;;;;5032942;28;20191;-76
2023/01/26 12:39:45;;;;;;;0.50;0.40;;;2.20;99.90;;;;;;5033378;28;20230;-76
2023/01/26 12:42:22;;;;;;;2.55;2.33;;;2.20;99.90;;;;;;5032671;28;20209;-76
2023/01/26 12:44:54;;;;;;;0.50;0.40;;;2.30;99.90;;;;;;5032923;28;20221;-76
2023/01/26 12:47:27;;;;;;;0.50;0.40;;;2.20;99.90;;;;;;5032680;28;20195;-76
2023/01/26 12:50:00;;;;;;;8.05;4.55;;;2.20;99.90;;;;;;5032107;28;20636;-76
2023/01/26 12:52:33;;;;;;;0.50;0.40;;;2.10;99.90;;;;;;5032653;28;20183;-76
2023/01/26 12:55:04;;;;;;;0.68;0.68;;;2.10;99.90;;;;;;5031195;28;20222;-76
2023/01/26 12:57:38;;;;;;;0.50;0.40;;;2.20;99.90;;;;;;5031228;28;20179;-75
2023/01/26 13:00:08;;;;;;;0.82;0.82;;;2.20;99.90;;;;;;5032374;28;20176;-76
2023/01/26 13:02:36;;;;;;;1.50;1.13;;;2.20;99.90;;;;;;5031290;28;20195;-76
2023/01/26 13:05:06;;;;;;;0.50;0.40;;;2.20;99.90;;;;;;5030898;28;20226;-76
2023/01/26 13:07:35;;;;;;;0.88;0.88;;;2.20;99.90;;;;;;5030899;28;20202;-75
2023/01/26 13:10:19;;;;;;;0.50;0.40;;;2.20;99.90;;;;;;5030741;28;20198;-76
2023/01/26 13:12:48;;;;;;;0.50;0.40;;;2.20;99.90;;;;;;5031034;28;20637;-76
2023/01/26 13:15:17;;;;;;;0.50;0.50;;;2.20;99.90;;;;;;5030602;28;20215;-76
2023/01/26 13:18:03;;;;;;;0.55;0.55;;;2.20;99.90;;;;;;5031174;28;20195;-76
2023/01/26 13:20:47;;;;;;;0.50;0.40;;;2.20;99.90;;;;;;5030236;28;20238;-76
2023/01/26 13:23:40;;;;;;;1.23;0.82;;;2.20;99.90;;;;;;5027910;28;20199;-76
2023/01/26 13:26:16;;;;;;;0.60;0.60;;;2.20;99.90;;;;;;5030682;28;20199;-76
2023/01/26 13:28:43;;;;;;;2.65;2.55;;;2.10;99.90;;;;;;5030792;28;20202;-76
2023/01/26 13:31:11;;;;;;;0.63;0.63;;;2.00;99.90;;;;;;5030468;28;20195;-76
2023/01/26 13:33:38;;;;;;;0.50;0.40;;;2.00;99.90;;;;;;5030682;28;20195;-76
2023/01/26 13:36:14;;;;;;;0.50;0.40;;;2.00;99.90;;;;;;5032720;28;20218;-76
2023/01/26 13:38:44;;;;;;;0.47;0.40;;;2.10;99.90;;;;;;5034612;28;20181;-76
2023/01/26 13:41:19;;;;;;;0.50;0.40;;;2.10;99.90;;;;;;5034121;28;20215;-76
2023/01/26 13:43:51;;;;;;;2.55;2.35;;;2.20;99.90;;;;;;5034198;28;20219;-76
2023/01/26 13:46:24;;;;;;;0.40;0.40;;;2.30;99.90;;;;;;5033963;28;20186;-76
2023/01/26 13:48:52;;;;;;;3.10;1.60;;;2.30;99.90;;;;;;5034344;28;20179;-76
2023/01/26 13:51:23;;;;;;;5.85;3.70;;;2.30;99.90;;;;;;5034520;28;20195;-76
2023/01/26 13:53:58;;;;;;;0.50;0.40;;;2.20;99.90;;;;;;5034738;28;20222;-76